createdAt,value
2023-02-11T00:02:16.087Z,103263.56
2023-02-11T00:04:43.221Z,103262.22
2023-02-11T00:07:10.284Z,103255.25
2023-02-11T00:09:37.947Z,103256.91
2023-02-11T00:12:05.685Z,103248.28
2023-02-11T00:14:32.867Z,103243.00
2023-02-11T00:17:00.022Z,103238.81
2023-02-11T00:19:28.800Z,103242.09
2023-02-11T00:21:56.251Z,103239.06
2023-02-11T00:24:24.841Z,103251.06
2023-02-11T00:26:51.921Z,103248.00
2023-02-11T00:29:18.949Z,103240.19
2023-02-11T00:31:46.353Z,103236.31
2023-02-11T00:34:13.981Z,103234.63
2023-02-11T00:36:42.659Z,103229.91
2023-02-11T00:39:09.844Z,103231.00
2023-02-11T00:41:36.971Z,103223.72
2023-02-11T00:44:04.386Z,103224.03
2023-02-11T00:46:33.069Z,103215.34
2023-02-11T00:49:00.155Z,103221.22
2023-02-11T00:51:28.821Z,103214.25
2023-02-11T00:53:57.259Z,103204.75
2023-02-11T00:56:24.356Z,103204.19
2023-02-11T00:58:51.630Z,103218.72
2023-02-11T01:01:18.825Z,103217.31
2023-02-11T01:03:46.300Z,103212.03
2023-02-11T01:06:14.018Z,103223.22
2023-02-11T01:08:41.214Z,103206.97
2023-02-11T01:11:14.754Z,103214.53
2023-02-11T01:13:41.982Z,103205.59
2023-02-11T01:16:10.841Z,103192.47
2023-02-11T01:18:38.656Z,103202.81
2023-02-11T01:21:06.156Z,103202.22
2023-02-11T01:23:33.517Z,103197.53
2023-02-11T01:26:00.645Z,103198.06
2023-02-11T01:28:30.629Z,103200.31
2023-02-11T01:30:58.355Z,103199.50
2023-02-11T01:33:25.514Z,103203.94
2023-02-11T01:35:54.161Z,103215.97
2023-02-11T01:38:23.366Z,103199.50
2023-02-11T01:40:51.772Z,103215.66
2023-02-11T01:43:20.506Z,103205.34
2023-02-11T01:46:26.609Z,103200.59
2023-02-11T01:48:57.883Z,103206.47
2023-02-11T01:51:29.839Z,103210.94
2023-02-11T01:54:16.188Z,103208.41
2023-02-11T01:57:05.423Z,103198.09
2023-02-11T01:59:36.136Z,103201.69
2023-02-11T02:02:08.575Z,103213.72
2023-02-11T02:04:44.560Z,103217.06
2023-02-11T02:07:17.448Z,103209.56
2023-02-11T02:09:52.637Z,103210.09
2023-02-11T02:12:19.640Z,103197.53
2023-02-11T02:14:46.693Z,103191.34
2023-02-11T02:17:25.766Z,103196.38
2023-02-11T02:20:24.675Z,103192.78
2023-02-11T02:23:35.193Z,103194.44
2023-02-11T02:26:31.165Z,103184.94
2023-02-11T02:29:22.689Z,103181.31
2023-02-11T02:32:23.133Z,103189.41
2023-02-11T02:34:53.933Z,103188.56
2023-02-11T02:37:27.778Z,103191.09
2023-02-11T02:39:57.351Z,103191.13
2023-02-11T02:42:25.144Z,103193.31
2023-02-11T02:44:53.575Z,103186.63
2023-02-11T02:47:22.186Z,103180.47
2023-02-11T02:49:49.238Z,103189.13
2023-02-11T02:52:25.450Z,103183.53
2023-02-11T02:55:17.608Z,103176.56
2023-02-11T02:58:02.928Z,103173.53
2023-02-11T03:00:37.751Z,103162.06
2023-02-11T03:03:22.504Z,103151.16
2023-02-11T03:05:57.008Z,103151.16
2023-02-11T03:08:30.613Z,103148.38
2023-02-11T03:11:00.117Z,103154.25
2023-02-11T03:13:33.533Z,103140.28
2023-02-11T03:16:05.342Z,103127.72
2023-02-11T03:18:36.989Z,103131.63
2023-02-11T03:21:08.396Z,103133.31
2023-02-11T03:23:40.256Z,103140.56
2023-02-11T03:26:14.407Z,103149.22
2023-02-11T03:28:49.693Z,103150.34
2023-02-11T03:31:22.327Z,103146.16
2023-02-11T03:33:57.260Z,103141.69
2023-02-11T03:36:33.417Z,103140.84
2023-02-11T03:39:01.980Z,103141.69
2023-02-11T03:41:31.664Z,103151.72
2023-02-11T03:43:59.606Z,103148.38
2023-02-11T03:46:31.476Z,103147.25
2023-02-11T03:49:03.939Z,103147.25
2023-02-11T03:51:33.354Z,103153.09
2023-02-11T03:54:04.968Z,103150.56
2023-02-11T03:56:36.780Z,103152.78
2023-02-11T03:59:03.824Z,103159.47
2023-02-11T04:01:31.001Z,103171.19
2023-02-11T04:03:58.003Z,103170.91
2023-02-11T04:06:26.477Z,103174.84
2023-02-11T04:08:53.718Z,103171.50
2023-02-11T04:11:20.662Z,103167.31
2023-02-11T04:13:47.713Z,103163.72
2023-02-11T04:16:14.730Z,103160.38
2023-02-11T04:18:41.747Z,103164.53
2023-02-11T04:21:09.416Z,103167.06
2023-02-11T04:23:41.021Z,103176.28
2023-02-11T04:26:08.314Z,103172.38
2023-02-11T04:28:36.439Z,103178.00
2023-02-11T04:31:03.836Z,103172.41
2023-02-11T04:33:31.132Z,103175.47
2023-02-11T04:35:58.237Z,103174.63
2023-02-11T04:38:25.368Z,103169.31
2023-02-11T04:40:53.996Z,103170.72
2023-02-11T04:43:21.399Z,103169.31
2023-02-11T04:45:48.863Z,103174.88
2023-02-11T04:48:16.265Z,103186.63
2023-02-11T04:50:43.530Z,103182.16
2023-02-11T04:53:10.679Z,103182.72
2023-02-11T04:55:37.890Z,103188.56
2023-02-11T04:58:06.792Z,103180.22
2023-02-11T05:00:36.603Z,103179.09
2023-02-11T05:03:06.122Z,103184.41
2023-02-11T05:05:33.272Z,103187.75
2023-02-11T05:08:00.537Z,103189.69
2023-02-11T05:10:28.734Z,103182.75
2023-02-11T05:12:56.192Z,103186.38
2023-02-11T05:15:25.011Z,103181.88
2023-02-11T05:17:52.201Z,103191.94
2023-02-11T05:20:19.483Z,103183.84
2023-02-11T05:22:46.830Z,103189.72
2023-02-11T05:25:14.097Z,103173.78
2023-02-11T05:27:41.351Z,103167.34
2023-02-11T05:30:10.916Z,103164.56
2023-02-11T05:32:39.602Z,103165.41
2023-02-11T05:35:08.347Z,103167.66
2023-02-11T05:37:35.668Z,103170.41
2023-02-11T05:40:02.910Z,103170.41
2023-02-11T05:42:30.063Z,103167.34
2023-02-11T05:44:57.256Z,103169.28
2023-02-11T05:47:24.431Z,103150.84
2023-02-11T05:49:54.640Z,103160.63
2023-02-11T05:52:22.066Z,103158.13
2023-02-11T05:54:49.478Z,103165.34
2023-02-11T05:57:16.788Z,103162.56
2023-02-11T05:59:44.301Z,103156.69
2023-02-11T06:02:11.544Z,103157.25
2023-02-11T06:04:38.873Z,103145.50
2023-02-11T06:07:07.464Z,103151.38
2023-02-11T06:09:34.566Z,103148.88
2023-02-11T06:12:01.827Z,103151.13
2023-02-11T06:14:29.031Z,103153.31
2023-02-11T06:16:56.246Z,103156.09
2023-02-11T06:19:23.335Z,103148.03
2023-02-11T06:21:50.806Z,103146.34
2023-02-11T06:24:33.134Z,103148.53
2023-02-11T06:27:06.960Z,103141.03
2023-02-11T06:29:33.967Z,103141.34
2023-02-11T06:32:01.212Z,103150.22
2023-02-11T06:34:28.330Z,103144.97
2023-02-11T06:36:55.952Z,103149.97
2023-02-11T06:39:24.786Z,103150.50
2023-02-11T06:41:51.992Z,103149.69
2023-02-11T06:44:23.206Z,103140.44
2023-02-11T06:46:52.495Z,103148.00
2023-02-11T06:52:04.227Z,103163.31
2023-02-11T06:54:32.640Z,103166.69
2023-02-11T06:56:59.728Z,103170.59
2023-02-11T06:59:26.704Z,103175.06
2023-02-11T07:01:53.682Z,103170.91
2023-02-11T07:04:20.790Z,103162.22
2023-02-11T07:06:47.784Z,103160.88
2023-02-11T07:09:14.739Z,103164.81
2023-02-11T07:11:43.122Z,103169.81
2023-02-11T07:14:10.757Z,103182.38
2023-02-11T07:16:38.861Z,103189.59
2023-02-11T07:19:05.824Z,103186.53
2023-02-11T07:21:33.096Z,103197.72
2023-02-11T07:24:00.130Z,103201.09
2023-02-11T07:26:27.433Z,103190.78
2023-02-11T07:28:55.833Z,103189.69
2023-02-11T07:31:24.541Z,103188.56
2023-02-11T07:33:53.201Z,103201.13
2023-02-11T07:36:20.888Z,103211.19
2023-02-11T07:38:48.279Z,103224.03
2023-02-11T07:41:16.938Z,103216.22
2023-02-11T07:43:44.252Z,103214.56
2023-02-11T07:46:18.988Z,103215.66
2023-02-11T07:48:46.008Z,103220.97
2023-02-11T07:51:15.407Z,103210.66
2023-02-11T07:53:43.017Z,103225.72
2023-02-11T07:56:11.026Z,103233.28
2023-02-11T07:58:38.224Z,103231.03
2023-02-11T08:01:07.134Z,103236.34
2023-02-11T08:03:35.989Z,103227.13
2023-02-11T08:06:04.361Z,103219.88
2023-02-11T08:08:31.285Z,103228.81
2023-02-11T08:10:58.527Z,103226.28
2023-02-11T08:13:27.113Z,103233.28
2023-02-11T08:15:57.519Z,103236.34
2023-02-11T08:18:24.487Z,103243.59
2023-02-11T08:20:53.097Z,103248.38
2023-02-11T08:23:20.482Z,103239.41
2023-02-11T08:25:47.588Z,103242.78
2023-02-11T08:28:14.661Z,103245.03
2023-02-11T08:30:41.745Z,103242.78
2023-02-11T08:33:08.780Z,103248.34
2023-02-11T08:35:36.573Z,103244.16
2023-02-11T08:38:05.007Z,103248.31
2023-02-11T08:40:31.981Z,103253.63
2023-02-11T08:42:58.977Z,103262.84
2023-02-11T08:45:26.039Z,103254.50
2023-02-11T08:47:53.162Z,103247.47
2023-02-11T08:50:20.632Z,103253.63
2023-02-11T08:52:47.787Z,103251.94
2023-02-11T08:55:16.582Z,103256.69
2023-02-11T08:57:43.529Z,103267.31
2023-02-11T09:00:11.617Z,103263.94
2023-02-11T09:02:38.681Z,103273.41
2023-02-11T09:05:06.435Z,103269.22
2023-02-11T09:07:33.508Z,103267.03
2023-02-11T09:10:00.545Z,103272.91
2023-02-11T09:12:28.970Z,103269.53
2023-02-11T09:14:56.005Z,103277.03
2023-02-11T09:17:23.028Z,103291.56
2023-02-11T09:19:50.016Z,103290.13
2023-02-11T09:22:16.977Z,103276.72
2023-02-11T09:24:43.982Z,103278.88
2023-02-11T09:27:11.067Z,103281.91
2023-02-11T09:29:39.507Z,103286.56
2023-02-11T09:32:09.681Z,103293.31
2023-02-11T09:34:39.851Z,103288.31
2023-02-11T09:37:06.871Z,103289.94
2023-02-11T09:39:33.874Z,103293.00
2023-02-11T09:42:17.063Z,103289.66
2023-02-11T09:44:47.635Z,103301.94
2023-02-11T09:47:24.943Z,103305.59
2023-02-11T09:49:57.439Z,103295.00
2023-02-11T09:52:33.402Z,103302.78
2023-02-11T09:55:03.024Z,103303.06
2023-02-11T09:57:33.710Z,103301.09
2023-02-11T10:00:03.902Z,103301.38
2023-02-11T10:02:45.722Z,103304.16
2023-02-11T10:05:26.235Z,103309.53
2023-02-11T10:08:01.425Z,103301.72
2023-02-11T10:10:51.163Z,103309.66
2023-02-11T10:13:42.684Z,103307.59
2023-02-11T10:16:26.625Z,103308.31
2023-02-11T10:19:16.916Z,103315.03
2023-02-11T10:21:54.490Z,103325.31
2023-02-11T10:24:22.324Z,103325.78
2023-02-11T10:26:49.699Z,103316.00
2023-02-11T10:29:31.475Z,103321.13
2023-02-11T10:32:04.325Z,103325.00
2023-02-11T10:34:31.312Z,103326.16
2023-02-11T10:36:58.590Z,103328.63
2023-02-11T10:39:27.893Z,103326.63
2023-02-11T10:41:57.975Z,103326.72
2023-02-11T10:44:28.992Z,103322.03
2023-02-11T10:46:57.615Z,103323.03
2023-02-11T10:49:38.520Z,103322.03
2023-02-11T10:52:20.642Z,103324.25
2023-02-11T10:54:59.565Z,103329.59
2023-02-11T10:57:30.480Z,103329.16
2023-02-11T10:59:59.875Z,103340.34
2023-02-11T11:02:32.286Z,103325.56
2023-02-11T11:05:04.789Z,103330.56
2023-02-11T11:07:33.749Z,103322.19
2023-02-11T11:10:04.853Z,103326.47
2023-02-11T11:12:42.173Z,103324.69
2023-02-11T11:15:22.299Z,103330.94
2023-02-11T11:17:50.002Z,103340.78
2023-02-11T11:20:24.505Z,103341.44
2023-02-11T11:22:54.264Z,103326.50
2023-02-11T11:25:27.461Z,103324.69
2023-02-11T11:27:57.479Z,103323.84
2023-02-11T11:30:28.598Z,103332.50
2023-02-11T11:32:56.875Z,103330.59
2023-02-11T11:35:30.187Z,103327.59
2023-02-11T11:38:01.956Z,103333.94
2023-02-11T11:40:30.592Z,103330.31
2023-02-11T11:43:14.191Z,103325.84
2023-02-11T11:45:53.481Z,103325.69
2023-02-11T11:48:24.967Z,103331.53
2023-02-11T11:50:57.497Z,103341.66
2023-02-11T11:53:32.044Z,103340.22
2023-02-11T11:56:03.733Z,103334.78
2023-02-11T11:58:32.241Z,103329.38
2023-02-11T12:01:15.889Z,103324.94
2023-02-11T12:04:24.219Z,103331.88
2023-02-11T12:07:10.390Z,103329.47
2023-02-11T12:09:53.183Z,103328.41
2023-02-11T12:12:41.535Z,103334.13
2023-02-11T12:15:20.986Z,103328.09
2023-02-11T12:18:13.520Z,103336.22
2023-02-11T12:21:01.933Z,103336.63
2023-02-11T12:23:48.665Z,103335.28
2023-02-11T12:26:19.645Z,103332.91
2023-02-11T12:29:01.097Z,103335.81
2023-02-11T12:31:41.099Z,103351.13
2023-02-11T12:34:40.584Z,103345.66
2023-02-11T12:37:26.038Z,103334.94
2023-02-11T12:40:07.281Z,103342.91
2023-02-11T12:43:12.588Z,103341.84
2023-02-11T12:45:53.773Z,103351.72
2023-02-11T12:48:41.118Z,103346.19
2023-02-11T12:51:19.848Z,103336.03
2023-02-11T12:54:11.851Z,103340.38
2023-02-11T12:56:45.398Z,103344.13
2023-02-11T12:59:20.985Z,103353.50
2023-02-11T13:01:52.031Z,103351.75
2023-02-11T13:04:25.889Z,103348.38
2023-02-11T13:06:55.899Z,103343.41
2023-02-11T13:09:26.703Z,103339.94
2023-02-11T13:11:59.183Z,103336.09
2023-02-11T13:14:29.252Z,103337.03
2023-02-11T13:16:58.501Z,103338.75
2023-02-11T13:19:33.221Z,103328.81
2023-02-11T13:22:07.831Z,103329.88
2023-02-11T13:24:44.648Z,103330.97
2023-02-11T13:27:30.179Z,103335.31
2023-02-11T13:30:22.119Z,103334.22
2023-02-11T13:33:21.498Z,103336.25
2023-02-11T13:36:10.633Z,103330.81
2023-02-11T13:38:38.710Z,103325.25
2023-02-11T13:41:15.525Z,103330.97
2023-02-11T13:43:44.681Z,103322.16
2023-02-11T13:46:13.532Z,103328.16
2023-02-11T13:48:49.229Z,103333.91
2023-02-11T13:51:19.205Z,103325.19
2023-02-11T13:53:49.933Z,103331.31
2023-02-11T13:56:28.325Z,103317.75
2023-02-11T13:59:00.207Z,103322.22
2023-02-11T14:02:20.064Z,103329.50
2023-02-11T14:05:39.720Z,103323.66
2023-02-11T14:08:45.895Z,103319.78
2023-02-11T14:11:43.811Z,103319.53
2023-02-11T14:14:28.985Z,103317.75
2023-02-11T14:17:33.087Z,103314.50
2023-02-11T14:20:04.524Z,103314.94
2023-02-11T14:22:42.759Z,103306.28
2023-02-11T14:25:22.321Z,103303.53
2023-02-11T14:27:55.346Z,103300.28
2023-02-11T14:30:56.381Z,103299.72
2023-02-11T14:33:57.700Z,103297.69
2023-02-11T14:36:51.937Z,103304.25
2023-02-11T14:39:37.700Z,103300.13
2023-02-11T14:42:04.977Z,103308.78
2023-02-11T14:44:34.211Z,103300.13
2023-02-11T14:47:03.268Z,103311.44
2023-02-11T14:49:33.358Z,103313.84
2023-02-11T14:52:06.323Z,103308.00
2023-02-11T14:54:35.224Z,103303.13
2023-02-11T14:57:13.333Z,103303.38
2023-02-11T14:59:41.204Z,103305.75
2023-02-11T15:02:22.970Z,103312.19
2023-02-11T15:04:50.217Z,103316.13
2023-02-11T15:07:18.421Z,103322.75
2023-02-11T15:09:48.542Z,103324.31
2023-02-11T15:12:20.303Z,103321.63
2023-02-11T15:14:50.737Z,103321.63
2023-02-11T15:17:22.705Z,103323.91
2023-02-11T15:19:53.388Z,103319.19
2023-02-11T15:22:23.608Z,103323.88
2023-02-11T15:24:59.452Z,103316.28
2023-02-11T15:27:26.604Z,103322.06
2023-02-11T15:29:53.765Z,103327.00
2023-02-11T15:32:24.594Z,103321.63
2023-02-11T15:34:54.143Z,103321.22
2023-02-11T15:37:23.596Z,103318.50
2023-02-11T15:39:51.995Z,103318.19
2023-02-11T15:42:22.047Z,103314.94
2023-02-11T15:44:56.400Z,103309.22
2023-02-11T15:47:25.464Z,103320.47
2023-02-11T15:49:52.551Z,103325.03
2023-02-11T15:52:25.605Z,103322.22
2023-02-11T15:54:53.779Z,103325.31
2023-02-11T15:57:22.832Z,103316.50
2023-02-11T15:59:52.450Z,103320.47
2023-02-11T16:02:22.420Z,103319.97
2023-02-11T16:04:53.772Z,103333.56
2023-02-11T16:07:42.318Z,103332.47
2023-02-11T16:10:22.165Z,103325.66
2023-02-11T16:13:20.519Z,103319.88
2023-02-11T16:15:51.138Z,103323.22
2023-02-11T16:18:38.979Z,103327.53
2023-02-11T16:21:16.073Z,103329.41
2023-02-11T16:23:49.405Z,103331.41
2023-02-11T16:26:26.096Z,103346.38
2023-02-11T16:28:53.780Z,103344.69
2023-02-11T16:31:20.857Z,103350.06
2023-02-11T16:33:47.847Z,103349.78
2023-02-11T16:36:20.004Z,103349.72
2023-02-11T16:38:47.157Z,103358.44
2023-02-11T16:41:14.434Z,103357.28
2023-02-11T16:43:41.433Z,103353.66
2023-02-11T16:46:09.491Z,103351.25
2023-02-11T16:48:38.053Z,103361.97
2023-02-11T16:51:05.428Z,103358.84
2023-02-11T16:53:33.827Z,103358.25
2023-02-11T16:56:00.847Z,103358.25
2023-02-11T16:58:27.818Z,103359.56
2023-02-11T17:00:57.125Z,103360.84
2023-02-11T17:03:29.597Z,103372.41
2023-02-11T17:05:57.143Z,103373.78
2023-02-11T17:08:24.136Z,103375.19
2023-02-11T17:10:52.895Z,103374.09
2023-02-11T17:13:20.355Z,103365.63
2023-02-11T17:15:47.465Z,103384.03
2023-02-11T17:18:14.591Z,103385.63
2023-02-11T17:20:42.123Z,103394.34
2023-02-11T17:23:09.813Z,103391.59
2023-02-11T17:25:40.807Z,103400.53
2023-02-11T17:28:10.006Z,103398.28
2023-02-11T17:30:39.940Z,103397.16
2023-02-11T17:33:06.974Z,103401.69
2023-02-11T17:35:34.230Z,103401.97
2023-02-11T17:38:01.542Z,103405.31
2023-02-11T17:40:28.659Z,103391.66
2023-02-11T17:42:55.700Z,103397.25
2023-02-11T17:45:24.198Z,103388.59
2023-02-11T17:47:51.145Z,103401.81
2023-02-11T17:50:18.638Z,103397.47
2023-02-11T17:52:45.512Z,103398.97
2023-02-11T17:55:12.542Z,103406.56
2023-02-11T17:57:39.716Z,103406.34
2023-02-11T18:00:10.018Z,103413.63
2023-02-11T18:02:38.475Z,103406.09
2023-02-11T18:05:06.425Z,103410.31
2023-02-11T18:07:33.451Z,103413.09
2023-02-11T18:10:00.531Z,103419.25
2023-02-11T18:12:27.511Z,103424.06
2023-02-11T18:14:57.872Z,103415.69
2023-02-11T18:17:25.907Z,103424.09
2023-02-11T18:19:57.413Z,103417.34
2023-02-11T18:22:25.106Z,103417.09
2023-02-11T18:24:52.780Z,103415.47
2023-02-11T18:27:19.950Z,103416.00
2023-02-11T18:29:46.983Z,103426.69
2023-02-11T18:32:14.228Z,103421.88
2023-02-11T18:34:41.387Z,103423.88
2023-02-11T18:37:10.360Z,103427.28
2023-02-11T18:39:37.410Z,103425.84
2023-02-11T18:42:04.796Z,103429.81
2023-02-11T18:44:32.037Z,103424.13
2023-02-11T18:46:59.359Z,103428.28
2023-02-11T18:49:26.413Z,103436.72
2023-02-11T18:51:53.668Z,103440.13
2023-02-11T18:54:22.091Z,103439.84
2023-02-11T18:56:49.110Z,103441.03
2023-02-11T18:59:16.148Z,103441.56
2023-02-11T19:01:46.900Z,103439.66
2023-02-11T19:04:19.056Z,103440.19
2023-02-11T19:06:49.595Z,103439.06
2023-02-11T19:09:19.163Z,103439.34
2023-02-11T19:11:47.982Z,103452.00
2023-02-11T19:14:16.175Z,103447.81
2023-02-11T19:16:44.632Z,103447.81
2023-02-11T19:19:11.830Z,103451.72
2023-02-11T19:21:38.884Z,103455.69
2023-02-11T19:24:07.818Z,103454.28
2023-02-11T19:26:35.688Z,103457.09
2023-02-11T19:29:04.579Z,103450.91
2023-02-11T19:31:32.403Z,103451.47
2023-02-11T19:33:59.496Z,103457.06
2023-02-11T19:36:26.853Z,103458.78
2023-02-11T19:38:54.124Z,103462.13
2023-02-11T19:41:24.597Z,103459.38
2023-02-11T19:43:53.068Z,103468.31
2023-02-11T19:46:22.315Z,103461.84
2023-02-11T19:48:50.051Z,103461.63
2023-02-11T19:51:17.843Z,103465.56
2023-02-11T19:53:45.620Z,103469.78
2023-02-11T19:56:14.200Z,103462.44
2023-02-11T19:58:42.357Z,103473.09
2023-02-11T20:01:12.329Z,103469.47
2023-02-11T20:03:42.567Z,103466.38
2023-02-11T20:06:13.218Z,103469.47
2023-02-11T20:08:40.609Z,103475.13
2023-02-11T20:11:09.173Z,103471.75
2023-02-11T20:13:37.755Z,103463.63
2023-02-11T20:16:12.458Z,103472.84
2023-02-11T20:18:41.220Z,103472.59
2023-02-11T20:21:09.123Z,103475.41
2023-02-11T20:23:38.328Z,103479.94
2023-02-11T20:26:06.920Z,103475.47
2023-02-11T20:28:34.027Z,103481.34
2023-02-11T20:31:01.394Z,103478.53
2023-02-11T20:33:30.038Z,103477.97
2023-02-11T20:36:00.203Z,103488.91
2023-02-11T20:38:27.759Z,103492.28
2023-02-11T20:40:55.552Z,103487.22
2023-02-11T20:43:23.083Z,103492.84
2023-02-11T20:45:50.514Z,103484.97
2023-02-11T20:48:17.629Z,103483.88
2023-02-11T20:50:47.959Z,103488.06
2023-02-11T20:53:16.576Z,103491.72
2023-02-11T20:55:43.754Z,103499.56
2023-02-11T20:58:10.812Z,103487.22
2023-02-11T21:00:38.120Z,103492.31
2023-02-11T21:03:05.495Z,103491.78
2023-02-11T21:05:32.689Z,103496.81
2023-02-11T21:07:59.690Z,103493.13
2023-02-11T21:10:28.412Z,103492.59
2023-02-11T21:12:55.408Z,103493.72
2023-02-11T21:15:24.213Z,103502.13
2023-02-11T21:17:51.518Z,103502.41
2023-02-11T21:20:19.045Z,103507.44
2023-02-11T21:22:46.249Z,103490.34
2023-02-11T21:25:13.405Z,103494.28
2023-02-11T21:27:41.847Z,103500.44
2023-02-11T21:30:09.884Z,103497.63
2023-02-11T21:32:36.925Z,103499.03
2023-02-11T21:35:04.088Z,103494.28
2023-02-11T21:37:31.047Z,103506.03
2023-02-11T21:39:58.094Z,103500.16
2023-02-11T21:42:25.195Z,103502.69
2023-02-11T21:44:53.529Z,103499.59
2023-02-11T21:47:20.769Z,103502.13
2023-02-11T21:49:47.737Z,103502.97
2023-02-11T21:52:14.766Z,103505.50
2023-02-11T21:54:41.829Z,103507.72
2023-02-11T21:57:08.798Z,103509.44
2023-02-11T21:59:35.805Z,103514.22
2023-02-11T22:02:04.264Z,103522.88
2023-02-11T22:04:31.513Z,103517.53
2023-02-11T22:06:58.568Z,103517.59
2023-02-11T22:09:25.599Z,103515.34
2023-02-11T22:11:53.736Z,103518.69
2023-02-11T22:14:20.822Z,103516.13
2023-02-11T22:16:48.219Z,103515.88
2023-02-11T22:19:17.447Z,103523.44
2023-02-11T22:21:44.451Z,103514.22
2023-02-11T22:24:11.598Z,103522.03
2023-02-11T22:26:39.006Z,103523.44
2023-02-11T22:29:06.130Z,103526.28
2023-02-11T22:31:34.943Z,103521.22
2023-02-11T22:34:03.199Z,103523.44
2023-02-11T22:36:33.285Z,103520.94
2023-02-11T22:39:02.044Z,103526.56
2023-02-11T22:41:29.271Z,103530.19
2023-02-11T22:43:56.273Z,103523.72
2023-02-11T22:46:23.779Z,103524.28
2023-02-11T22:48:51.274Z,103528.50
2023-02-11T22:51:20.340Z,103516.78
2023-02-11T22:53:53.478Z,103527.69
2023-02-11T22:56:21.543Z,103527.66
2023-02-11T22:58:50.710Z,103529.91
2023-02-11T23:01:18.817Z,103529.63
2023-02-11T23:03:46.193Z,103523.75
2023-02-11T23:06:13.516Z,103527.38
2023-02-11T23:08:43.024Z,103528.53
2023-02-11T23:11:13.462Z,103530.44
2023-02-11T23:13:41.823Z,103533.81
2023-02-11T23:16:11.163Z,103528.22
2023-02-11T23:18:40.700Z,103540.53
2023-02-11T23:21:12.389Z,103541.66
2023-02-11T23:23:39.984Z,103538.88
2023-02-11T23:26:12.437Z,103547.56
2023-02-11T23:28:40.163Z,103546.72
2023-02-11T23:31:18.253Z,103547.84
2023-02-11T23:33:46.011Z,103545.03
2023-02-11T23:36:13.653Z,103545.28
2023-02-11T23:38:40.914Z,103545.59
2023-02-11T23:41:08.133Z,103547.53
2023-02-11T23:43:36.664Z,103539.41
2023-02-11T23:46:03.761Z,103539.97
2023-02-11T23:48:30.807Z,103532.41
2023-02-11T23:50:57.931Z,103531.31
2023-02-11T23:53:24.908Z,103541.94
2023-02-11T23:55:51.782Z,103535.22
2023-02-11T23:58:19.259Z,103538.59
